Time;durP1;ratioP1;P1;durP2;ratioP2;P2;SDS_P1;SDS_P2;PMS_P1;PMS_P2;Temp;Humidity;BMP_temperature;BMP_pressure;BME280_temperature;BME280_humidity;BME280_pressure;Samples;Min_cycle;Max_cycle;Signal;HPM_P1;HPM_P2
2022/08/25 00:03:00;;;;;;;2.50;2.30;;;23.80;56.90;;;;;;10461798;28;20663;-75
2022/08/25 00:08:04;;;;;;;3.13;2.30;;;23.70;57.20;;;;;;10473126;28;20257;-75
2022/08/25 00:13:05;;;;;;;4.87;2.40;;;23.70;57.50;;;;;;10474832;28;20721;-74
2022/08/25 00:18:06;;;;;;;6.60;2.63;;;23.60;58.00;;;;;;10467631;28;20240;-75
2022/08/25 00:23:07;;;;;;;6.50;3.00;;;23.50;58.70;;;;;;10474531;28;20626;-75
2022/08/25 00:28:09;;;;;;;7.77;2.93;;;23.50;59.80;;;;;;10469831;28;20219;-74
2022/08/25 00:33:10;;;;;;;3.80;3.37;;;23.40;61.40;;;;;;10472648;28;20227;-75
2022/08/25 00:38:11;;;;;;;5.60;3.30;;;23.40;62.50;;;;;;10476110;28;20267;-74
2022/08/25 00:43:12;;;;;;;4.57;3.37;;;23.40;63.30;;;;;;10475886;28;20231;-73
2022/08/25 00:48:12;;;;;;;4.70;3.70;;;23.40;64.10;;;;;;10475150;28;20215;-74
2022/08/25 00:53:13;;;;;;;6.27;3.77;;;23.30;64.80;;;;;;10468839;28;20255;-74
2022/08/25 00:58:26;;;;;;;4.43;3.60;;;23.30;65.30;;;;;;10463178;28;20633;-76
2022/08/25 01:03:28;;;;;;;6.50;3.70;;;23.30;65.90;;;;;;10471835;28;20242;-72
2022/08/25 01:08:31;;;;;;;7.17;3.90;;;23.20;66.60;;;;;;10465857;28;20231;-71
2022/08/25 01:13:49;;;;;;;4.43;3.87;;;23.20;67.00;;;;;;10471408;28;20230;-74
2022/08/25 01:18:55;;;;;;;6.83;4.00;;;23.20;67.70;;;;;;10474929;28;20241;-75
2022/08/25 01:23:58;;;;;;;4.40;4.00;;;23.10;68.00;;;;;;10467848;28;20224;-73
2022/08/25 01:29:20;;;;;;;5.13;3.60;;;23.00;68.30;;;;;;10462060;28;20227;-75
2022/08/25 01:34:20;;;;;;;4.20;3.80;;;22.90;68.00;;;;;;10465085;28;20224;-75
2022/08/25 01:39:22;;;;;;;4.27;3.77;;;22.80;68.20;;;;;;10472392;28;20216;-76
2022/08/25 01:44:24;;;;;;;6.10;3.60;;;22.70;68.50;;;;;;10479504;28;20710;-75
2022/08/25 01:49:25;;;;;;;6.30;3.90;;;22.60;68.80;;;;;;10463934;28;20220;-74
2022/08/25 01:54:25;;;;;;;5.73;4.30;;;22.60;69.10;;;;;;10475117;28;20215;-73
2022/08/25 01:59:26;;;;;;;4.90;3.47;;;22.50;69.40;;;;;;10466220;28;20217;-75
2022/08/25 02:04:30;;;;;;;3.73;3.43;;;22.40;69.80;;;;;;10477970;28;20216;-75
2022/08/25 02:09:31;;;;;;;5.70;3.80;;;22.20;70.50;;;;;;10454196;28;20219;-75
2022/08/25 02:14:36;;;;;;;5.20;3.80;;;22.10;71.00;;;;;;10474005;28;20249;-75
2022/08/25 02:19:36;;;;;;;4.53;3.43;;;21.90;71.50;;;;;;10479102;28;20687;-75
2022/08/25 02:24:37;;;;;;;4.63;3.60;;;21.80;72.30;;;;;;10486898;28;20357;-75
2022/08/25 02:29:38;;;;;;;5.50;3.53;;;21.60;73.70;;;;;;10476181;28;20223;-75
2022/08/25 02:34:40;;;;;;;5.67;4.10;;;21.60;73.50;;;;;;10479982;28;20314;-75
2022/08/25 02:39:41;;;;;;;6.97;4.43;;;21.50;74.10;;;;;;10475495;28;20219;-75
2022/08/25 02:44:41;;;;;;;5.20;4.20;;;21.50;74.60;;;;;;10478001;28;20234;-71
2022/08/25 02:49:42;;;;;;;5.30;4.00;;;21.40;74.90;;;;;;10482487;28;20226;-72
2022/08/25 02:54:43;;;;;;;6.53;4.40;;;21.40;75.50;;;;;;10493987;28;20227;-72
2022/08/25 02:59:47;;;;;;;6.73;4.57;;;21.30;75.90;;;;;;10492848;28;20588;-74
2022/08/25 03:04:47;;;;;;;6.33;4.80;;;21.30;76.50;;;;;;10483093;28;20235;-73
2022/08/25 03:09:48;;;;;;;6.23;4.50;;;21.30;76.90;;;;;;10467602;28;20228;-74
2022/08/25 03:14:49;;;;;;;8.43;4.90;;;21.20;77.30;;;;;;10478446;28;20223;-74
2022/08/25 03:19:52;;;;;;;6.50;4.57;;;21.10;77.80;;;;;;10471914;28;20215;-73
2022/08/25 03:26:52;;;;;;;7.47;4.33;;;21.10;78.20;;;;;;10479595;28;20231;-73
2022/08/25 03:30:14;;;;;;;6.80;4.40;;;21.00;78.60;;;;;;10468583;28;20282;-71
2022/08/25 03:35:15;;;;;;;9.83;4.70;;;21.00;79.00;;;;;;10475351;28;20215;-73
2022/08/25 03:40:19;;;;;;;4.87;4.37;;;21.00;80.20;;;;;;10470390;28;20187;-72
2022/08/25 03:45:20;;;;;;;6.37;4.57;;;21.00;79.70;;;;;;10482368;28;20203;-72
2022/08/25 03:50:22;;;;;;;5.27;4.70;;;20.90;80.10;;;;;;10476315;28;20621;-73
2022/08/25 03:55:24;;;;;;;5.67;4.10;;;20.80;80.90;;;;;;10473962;28;20666;-73
2022/08/25 04:00:25;;;;;;;8.63;4.93;;;20.80;81.40;;;;;;10482039;28;20615;-71
2022/08/25 04:05:25;;;;;;;11.60;5.10;;;20.70;82.00;;;;;;10474298;28;20226;-73
2022/08/25 04:10:26;;;;;;;10.27;4.80;;;20.70;82.40;;;;;;10465345;28;20246;-74
2022/08/25 04:15:27;;;;;;;9.70;4.80;;;20.70;82.90;;;;;;10469983;28;20315;-73
2022/08/25 04:20:28;;;;;;;7.43;4.97;;;20.70;83.20;;;;;;10460038;28;20215;-72
2022/08/25 04:25:29;;;;;;;7.40;4.50;;;20.60;83.80;;;;;;10483692;28;20230;-73
2022/08/25 04:30:29;;;;;;;6.80;4.90;;;20.60;84.40;;;;;;10474495;28;20278;-73
2022/08/25 04:35:30;;;;;;;8.10;5.33;;;20.60;85.00;;;;;;10472921;28;20230;-73
2022/08/25 04:40:30;;;;;;;5.97;5.17;;;20.60;85.50;;;;;;10479680;28;20570;-73
2022/08/25 04:45:35;;;;;;;8.67;5.27;;;20.50;86.60;;;;;;10472562;28;20294;-72
2022/08/25 04:50:38;;;;;;;7.73;5.67;;;20.40;87.90;;;;;;10479640;28;20219;-73
2022/08/25 04:55:44;;;;;;;6.43;5.67;;;20.40;88.40;;;;;;10472477;28;20236;-73
2022/08/25 05:00:45;;;;;;;7.33;5.70;;;20.50;89.20;;;;;;10473306;28;20220;-73
2022/08/25 05:05:46;;;;;;;6.87;5.70;;;20.50;89.70;;;;;;10472742;28;20298;-69
2022/08/25 05:10:46;;;;;;;11.37;5.93;;;20.50;90.20;;;;;;10472726;28;20211;-70
2022/08/25 05:15:56;;;;;;;9.23;5.60;;;20.50;90.50;;;;;;10472581;28;20748;-70
2022/08/25 05:21:01;;;;;;;9.50;6.27;;;20.70;90.50;;;;;;10463310;28;20223;-70
2022/08/25 05:26:11;;;;;;;8.80;5.87;;;20.80;90.50;;;;;;10471161;28;20224;-71
2022/08/25 05:31:14;;;;;;;11.50;6.37;;;21.00;90.60;;;;;;10469284;28;20216;-72
2022/08/25 05:36:16;;;;;;;10.00;6.70;;;21.00;90.70;;;;;;10476699;28;20239;-72
2022/08/25 05:41:20;;;;;;;9.93;6.23;;;21.00;91.00;;;;;;10478084;28;20321;-72
2022/08/25 05:46:21;;;;;;;9.17;6.23;;;21.30;90.80;;;;;;10477161;28;20226;-73
2022/08/25 05:51:22;;;;;;;8.47;6.10;;;21.50;90.30;;;;;;10475110;28;20241;-70
2022/08/25 05:56:23;;;;;;;11.47;6.60;;;21.70;90.40;;;;;;10466792;28;20233;-71
2022/08/25 06:06:47;;;;;;;13.07;6.37;;;24.30;80.30;;;;;;10469147;28;20211;-71
2022/08/25 06:11:48;;;;;;;7.93;5.90;;;26.60;70.00;;;;;;10460021;28;20251;-71
2022/08/25 06:16:50;;;;;;;8.73;5.87;;;28.20;63.50;;;;;;10461818;28;20247;-69
2022/08/25 06:21:55;;;;;;;6.83;5.97;;;29.20;59.70;;;;;;10458484;28;20219;-70
2022/08/25 06:26:57;;;;;;;8.80;6.07;;;29.40;58.00;;;;;;10462789;28;20625;-70
2022/08/25 06:31:57;;;;;;;6.47;5.60;;;30.10;56.70;;;;;;10454864;28;20311;-70
2022/08/25 06:36:58;;;;;;;6.90;5.80;;;30.70;54.70;;;;;;10468468;28;20723;-71
2022/08/25 06:41:59;;;;;;;8.07;5.93;;;30.50;55.30;;;;;;10477903;28;20306;-70
2022/08/25 06:47:00;;;;;;;10.10;6.30;;;29.40;57.60;;;;;;10472786;28;20226;-70
2022/08/25 06:52:01;;;;;;;8.27;6.53;;;29.80;57.40;;;;;;10473499;28;20724;-71
2022/08/25 06:57:03;;;;;;;8.10;6.37;;;29.80;57.10;;;;;;10474613;28;20707;-70
2022/08/25 07:02:05;;;;;;;7.40;6.67;;;28.30;60.70;;;;;;10476601;28;20211;-70
2022/08/25 07:07:06;;;;;;;9.10;7.00;;;26.90;65.70;;;;;;10474390;28;20243;-70
2022/08/25 07:12:07;;;;;;;9.77;7.50;;;26.20;69.30;;;;;;10466383;28;20646;-70
2022/08/25 07:17:09;;;;;;;9.30;7.23;;;25.50;72.20;;;;;;10474227;28;20212;-70
2022/08/25 07:22:09;;;;;;;8.73;7.30;;;25.20;74.70;;;;;;10471476;28;20226;-70
2022/08/25 07:27:10;;;;;;;8.73;7.87;;;25.10;76.00;;;;;;10477756;28;20262;-70
2022/08/25 07:32:10;;;;;;;8.60;7.30;;;25.10;76.80;;;;;;10480551;28;20273;-70
2022/08/25 07:37:11;;;;;;;7.77;6.97;;;25.30;76.30;;;;;;10463347;28;20302;-69
2022/08/25 07:42:12;;;;;;;7.53;6.73;;;27.60;70.00;;;;;;10467887;28;20242;-70
2022/08/25 07:47:14;;;;;;;10.23;6.73;;;30.30;59.90;;;;;;10469460;28;20247;-70
2022/08/25 07:52:18;;;;;;;11.07;7.20;;;32.40;54.90;;;;;;10473723;28;20717;-70
2022/08/25 07:57:21;;;;;;;10.40;6.20;;;33.60;51.40;;;;;;10468343;28;20224;-70
2022/08/25 08:02:21;;;;;;;10.40;6.20;;;34.20;49.70;;;;;;10471678;28;20211;-70
2022/08/25 08:07:24;;;;;;;7.97;5.97;;;35.20;47.90;;;;;;10468957;28;20299;-69
2022/08/25 08:12:25;;;;;;;9.53;6.07;;;35.20;46.80;;;;;;10467066;28;20717;-70
2022/08/25 08:17:26;;;;;;;7.77;6.33;;;35.60;46.60;;;;;;10470444;28;20211;-68
2022/08/25 08:22:28;;;;;;;6.73;5.90;;;35.30;46.40;;;;;;10462460;28;20225;-70
2022/08/25 08:27:28;;;;;;;7.23;5.70;;;35.50;46.00;;;;;;10468492;28;20637;-70
2022/08/25 08:32:29;;;;;;;5.93;5.37;;;36.10;45.00;;;;;;10457429;28;20306;-71
2022/08/25 08:37:30;;;;;;;6.87;5.63;;;35.80;44.80;;;;;;10466005;28;20212;-70
2022/08/25 08:43:05;;;;;;;7.87;5.43;;;36.40;44.50;;;;;;10478005;28;20635;-70
2022/08/25 08:48:11;;;;;;;8.23;5.17;;;36.30;44.10;;;;;;10448199;28;20236;-70
2022/08/25 08:53:18;;;;;;;7.93;5.47;;;36.00;44.20;;;;;;10472219;28;20224;-70
2022/08/25 08:58:39;;;;;;;6.40;5.80;;;36.40;43.80;;;;;;10460994;28;20295;-70
2022/08/25 09:03:45;;;;;;;6.03;5.13;;;37.50;41.80;;;;;;10465372;28;20620;-70
2022/08/25 09:08:45;;;;;;;6.70;4.87;;;37.40;41.70;;;;;;10457107;28;20261;-70
2022/08/25 09:14:02;;;;;;;5.73;5.13;;;38.50;40.00;;;;;;10460460;28;20220;-71
2022/08/25 09:19:13;;;;;;;5.83;5.23;;;38.10;40.60;;;;;;10461916;28;20207;-71
2022/08/25 09:24:36;;;;;;;5.40;4.90;;;39.90;37.70;;;;;;10452141;28;20224;-70
2022/08/25 09:30:16;;;;;;;5.13;4.23;;;38.80;39.00;;;;;;10479359;28;20590;-70
2022/08/25 09:35:27;;;;;;;5.87;4.30;;;38.50;37.90;;;;;;10458076;28;20231;-70
2022/08/25 09:40:34;;;;;;;7.13;4.87;;;38.60;38.00;;;;;;10459502;28;20570;-70
2022/08/25 09:45:46;;;;;;;5.50;5.00;;;37.80;39.50;;;;;;10460513;28;20219;-70
2022/08/25 09:50:50;;;;;;;5.27;4.77;;;37.90;39.10;;;;;;10468833;28;20767;-72
2022/08/25 09:56:09;;;;;;;5.73;4.77;;;38.80;38.30;;;;;;10473315;28;20239;-71
2022/08/25 10:01:20;;;;;;;5.43;5.00;;;38.20;38.20;;;;;;10465878;28;20231;-71
2022/08/25 10:06:22;;;;;;;4.33;4.03;;;38.50;37.40;;;;;;10474618;28;20216;-72
2022/08/25 10:11:43;;;;;;;7.77;4.60;;;39.70;36.30;;;;;;10471640;28;20218;-71
2022/08/25 10:16:45;;;;;;;6.17;4.83;;;39.60;35.90;;;;;;10473721;28;20709;-70
2022/08/25 10:22:08;;;;;;;5.87;4.77;;;39.10;36.80;;;;;;10470759;28;20251;-72
2022/08/25 10:27:32;;;;;;;6.00;4.63;;;39.70;36.40;;;;;;10467671;28;20226;-72
2022/08/25 10:32:58;;;;;;;6.10;5.50;;;40.00;35.00;;;;;;10466932;28;20449;-71
2022/08/25 10:37:58;;;;;;;7.50;5.57;;;40.80;35.10;;;;;;10476348;28;20213;-71
2022/08/25 10:43:19;;;;;;;5.03;4.50;;;40.30;35.60;;;;;;10483495;28;20309;-71
2022/08/25 10:48:44;;;;;;;4.50;3.93;;;40.60;33.90;;;;;;10474601;28;20219;-69
2022/08/25 10:53:56;;;;;;;4.17;3.77;;;40.30;34.40;;;;;;10474036;28;20234;-71
2022/08/25 10:59:14;;;;;;;5.07;3.73;;;40.90;32.30;;;;;;10472308;28;20211;-71
2022/08/25 11:04:30;;;;;;;4.40;3.83;;;41.10;32.20;;;;;;10473322;28;20216;-70
2022/08/25 11:09:38;;;;;;;6.03;4.60;;;39.80;33.30;;;;;;10476058;28;20214;-70
2022/08/25 11:14:58;;;;;;;4.80;4.40;;;36.20;38.30;;;;;;10472105;28;20223;-70
2022/08/25 11:20:04;;;;;;;4.93;4.33;;;34.40;42.00;;;;;;10465706;28;20425;-70
2022/08/25 11:25:11;;;;;;;5.20;4.10;;;33.10;44.00;;;;;;10449883;28;20215;-70
2022/08/25 11:30:16;;;;;;;6.27;4.27;;;32.70;44.50;;;;;;10476611;28;20192;-70
2022/08/25 11:35:29;;;;;;;4.57;4.17;;;32.10;45.90;;;;;;10471743;28;20264;-70
2022/08/25 11:41:06;;;;;;;4.33;3.90;;;32.00;46.70;;;;;;10458445;28;20226;-70
2022/08/25 11:46:38;;;;;;;4.90;4.40;;;31.70;47.10;;;;;;10478594;28;20235;-69
2022/08/25 11:51:43;;;;;;;6.37;4.43;;;31.70;46.70;;;;;;10463182;28;20684;-69
2022/08/25 11:56:56;;;;;;;4.50;3.93;;;31.80;46.70;;;;;;10471737;28;20222;-69
2022/08/25 12:01:57;;;;;;;4.10;3.70;;;31.90;46.10;;;;;;10469058;28;20255;-69
2022/08/25 12:07:09;;;;;;;4.83;3.97;;;31.70;46.70;;;;;;10473668;28;20227;-68
2022/08/25 12:12:30;;;;;;;4.70;4.27;;;31.70;47.20;;;;;;10467298;28;20254;-69
2022/08/25 12:17:37;;;;;;;4.37;3.83;;;31.70;47.10;;;;;;10456903;28;20710;-69
2022/08/25 12:22:42;;;;;;;4.40;4.00;;;31.90;46.40;;;;;;10473261;28;20682;-70
2022/08/25 12:28:22;;;;;;;3.90;3.60;;;32.40;45.70;;;;;;10474513;28;20226;-70
2022/08/25 12:33:50;;;;;;;7.50;4.10;;;32.20;45.70;;;;;;10483565;28;20234;-70
2022/08/25 12:38:51;;;;;;;6.10;4.77;;;32.20;46.40;;;;;;10472467;28;20253;-69
2022/08/25 12:44:19;;;;;;;4.33;3.93;;;31.70;47.40;;;;;;10467051;28;20608;-69
2022/08/25 12:49:31;;;;;;;4.03;3.73;;;31.50;47.70;;;;;;10472315;28;20215;-69
2022/08/25 12:54:35;;;;;;;4.40;4.00;;;31.50;47.40;;;;;;10466400;28;20223;-69
2022/08/25 12:59:43;;;;;;;4.73;4.33;;;31.30;48.00;;;;;;10454705;28;20219;-69
2022/08/25 13:05:22;;;;;;;5.97;3.90;;;31.20;48.10;;;;;;10461381;28;20220;-70
2022/08/25 13:10:51;;;;;;;4.33;3.77;;;31.40;47.80;;;;;;10466422;28;20721;-70
2022/08/25 13:16:01;;;;;;;4.17;3.87;;;31.30;47.20;;;;;;10464814;28;20236;-69
2022/08/25 13:21:12;;;;;;;4.80;4.27;;;31.40;47.50;;;;;;10461976;28;20227;-69
2022/08/25 13:26:36;;;;;;;6.53;4.03;;;31.20;47.70;;;;;;10462657;28;20231;-70
2022/08/25 13:32:14;;;;;;;5.30;3.87;;;31.10;48.20;;;;;;10450786;28;20231;-70
2022/08/25 13:37:27;;;;;;;6.27;3.70;;;31.20;47.70;;;;;;10473677;28;20222;-71
2022/08/25 13:42:28;;;;;;;4.13;3.70;;;31.70;47.40;;;;;;10473292;28;20261;-70
2022/08/25 13:47:39;;;;;;;5.63;3.67;;;31.90;47.30;;;;;;10474795;28;20223;-70
2022/08/25 13:52:40;;;;;;;4.60;3.90;;;32.20;46.00;;;;;;10465710;28;20255;-71
2022/08/25 13:57:43;;;;;;;4.50;4.10;;;32.10;46.20;;;;;;10474488;28;20216;-70
2022/08/25 14:02:53;;;;;;;4.30;3.90;;;31.20;47.40;;;;;;10468369;28;20228;-70
2022/08/25 14:08:01;;;;;;;5.20;4.00;;;31.10;48.00;;;;;;10455996;28;20219;-70
2022/08/25 14:13:13;;;;;;;4.43;4.10;;;31.30;47.50;;;;;;10462300;28;20231;-71
2022/08/25 14:18:19;;;;;;;4.53;4.10;;;31.30;47.30;;;;;;10485454;28;20219;-70
2022/08/25 14:23:24;;;;;;;4.27;3.90;;;31.50;47.00;;;;;;10471457;28;20215;-71
2022/08/25 14:28:28;;;;;;;4.17;3.83;;;31.50;46.90;;;;;;10474046;28;20247;-70
2022/08/25 14:34:00;;;;;;;5.03;4.33;;;31.50;46.40;;;;;;10484495;28;20227;-70
2022/08/25 14:39:04;;;;;;;4.63;3.67;;;31.80;46.20;;;;;;10457167;28;20302;-70
2022/08/25 14:44:06;;;;;;;4.93;3.93;;;31.80;46.00;;;;;;10472714;28;20756;-70
2022/08/25 14:49:11;;;;;;;5.80;3.77;;;31.80;45.90;;;;;;10481818;28;20787;-70
2022/08/25 14:54:13;;;;;;;7.77;4.03;;;32.00;45.50;;;;;;10476506;28;20322;-70
2022/08/25 14:59:17;;;;;;;5.93;3.97;;;32.20;45.40;;;;;;10480265;28;20211;-70
2022/08/25 15:04:21;;;;;;;7.80;4.30;;;32.10;45.90;;;;;;10466277;28;20219;-70
2022/08/25 15:09:23;;;;;;;4.33;3.93;;;31.80;45.60;;;;;;10481045;28;20678;-69
2022/08/25 15:14:25;;;;;;;5.83;3.80;;;31.60;46.60;;;;;;10477573;28;20238;-70
2022/08/25 15:19:26;;;;;;;4.30;3.93;;;31.40;46.40;;;;;;10475550;28;20228;-70
2022/08/25 15:24:27;;;;;;;6.07;3.77;;;31.10;46.70;;;;;;10477492;28;20297;-70
2022/08/25 15:29:31;;;;;;;4.77;4.23;;;30.70;47.30;;;;;;10473226;28;20310;-70
2022/08/25 15:34:32;;;;;;;4.30;3.90;;;30.60;47.80;;;;;;10466701;28;20207;-70
2022/08/25 15:39:32;;;;;;;4.93;3.73;;;30.50;48.00;;;;;;10473695;28;20621;-69
2022/08/25 15:44:33;;;;;;;5.77;3.63;;;30.50;48.00;;;;;;10466086;28;20220;-70
2022/08/25 15:49:35;;;;;;;7.07;3.60;;;30.40;48.10;;;;;;10459975;28;20223;-70
2022/08/25 15:54:35;;;;;;;3.87;3.40;;;30.60;48.60;;;;;;10466787;28;20224;-71
2022/08/25 15:59:39;;;;;;;4.30;3.93;;;30.60;48.10;;;;;;10470300;28;20216;-69
2022/08/25 16:04:43;;;;;;;5.87;3.83;;;30.50;48.30;;;;;;10463618;28;20231;-70
2022/08/25 16:09:44;;;;;;;4.13;3.83;;;30.30;48.80;;;;;;10466252;28;20290;-70
2022/08/25 16:14:44;;;;;;;4.77;4.07;;;30.30;48.90;;;;;;10469101;28;20249;-70
2022/08/25 16:19:46;;;;;;;5.60;3.63;;;30.30;48.80;;;;;;10484046;28;20227;-71
2022/08/25 16:24:46;;;;;;;4.37;3.97;;;30.30;49.10;;;;;;10476563;28;20219;-70
2022/08/25 16:29:48;;;;;;;4.10;3.67;;;30.20;49.10;;;;;;10485352;28;20223;-70
2022/08/25 16:34:48;;;;;;;6.00;3.80;;;30.20;49.50;;;;;;10485011;28;20230;-70
2022/08/25 16:39:54;;;;;;;5.23;4.00;;;30.10;49.20;;;;;;10485885;28;20237;-70
2022/08/25 16:44:54;;;;;;;5.80;4.17;;;30.00;49.50;;;;;;10485667;28;20261;-70
2022/08/25 16:49:55;;;;;;;4.97;3.87;;;29.90;49.70;;;;;;10474528;28;20253;-70
2022/08/25 16:55:12;;;;;;;5.47;4.10;;;29.80;49.90;;;;;;10477828;28;20226;-70
2022/08/25 17:00:16;;;;;;;4.97;3.97;;;29.70;49.80;;;;;;10475784;28;20226;-70
2022/08/25 17:05:20;;;;;;;6.60;4.40;;;29.70;50.20;;;;;;10476528;28;20283;-70
2022/08/25 17:10:21;;;;;;;5.07;4.40;;;29.60;50.90;;;;;;10484993;28;20188;-70
2022/08/25 17:15:22;;;;;;;4.17;3.80;;;29.50;50.40;;;;;;10468397;28;20214;-70
2022/08/25 17:20:24;;;;;;;4.40;3.70;;;29.50;50.50;;;;;;10470636;28;20172;-71
2022/08/25 17:25:25;;;;;;;4.10;3.70;;;29.40;50.50;;;;;;10470128;28;20299;-71
2022/08/25 17:30:26;;;;;;;5.03;4.47;;;29.30;50.60;;;;;;10470427;28;20215;-72
2022/08/25 17:35:26;;;;;;;4.50;4.10;;;29.30;50.70;;;;;;10469124;28;20224;-70
2022/08/25 17:40:27;;;;;;;5.90;3.93;;;29.20;50.90;;;;;;10462049;28;20324;-71
2022/08/25 17:45:28;;;;;;;6.33;4.00;;;29.10;51.20;;;;;;10463565;28;20238;-71
2022/08/25 17:50:30;;;;;;;4.30;3.90;;;29.00;51.30;;;;;;10469493;28;20220;-70
2022/08/25 17:55:30;;;;;;;4.70;4.30;;;28.90;51.60;;;;;;10451334;28;20231;-70
2022/08/25 18:00:31;;;;;;;6.97;3.90;;;28.80;52.00;;;;;;10466166;28;20245;-71
2022/08/25 18:05:36;;;;;;;5.70;3.93;;;28.70;52.20;;;;;;10477922;28;20226;-70
2022/08/25 18:10:38;;;;;;;7.37;4.17;;;28.60;52.60;;;;;;10476392;28;20226;-70
2022/08/25 18:15:40;;;;;;;4.90;3.90;;;28.40;52.90;;;;;;10459739;28;20240;-71
2022/08/25 18:20:44;;;;;;;4.23;3.80;;;28.20;53.30;;;;;;10463687;28;20234;-71
2022/08/25 18:25:48;;;;;;;4.40;4.00;;;28.00;53.90;;;;;;10466719;28;20248;-71
2022/08/25 18:30:48;;;;;;;6.80;4.50;;;27.80;54.60;;;;;;10463180;28;20231;-70
2022/08/25 18:35:49;;;;;;;9.17;5.00;;;27.60;55.20;;;;;;10472345;28;20242;-70
2022/08/25 18:40:54;;;;;;;8.80;5.00;;;27.40;55.70;;;;;;10471052;28;20227;-71
2022/08/25 18:45:57;;;;;;;4.73;4.30;;;27.30;56.10;;;;;;10472177;28;20694;-72
2022/08/25 18:50:59;;;;;;;5.37;4.77;;;27.20;56.30;;;;;;10471446;28;20822;-71
2022/08/25 18:56:03;;;;;;;5.30;4.80;;;27.00;56.60;;;;;;10470708;28;20257;-71
2022/08/25 19:01:04;;;;;;;7.27;4.90;;;26.90;57.00;;;;;;10479882;28;20256;-72
2022/08/25 19:06:05;;;;;;;5.50;4.90;;;26.70;57.50;;;;;;10471829;28;20261;-70
2022/08/25 19:11:06;;;;;;;5.90;4.87;;;26.60;58.20;;;;;;10485811;28;20231;-71
2022/08/25 19:16:30;;;;;;;6.20;4.87;;;26.40;59.00;;;;;;10474319;28;20306;-69
2022/08/25 19:21:40;;;;;;;6.90;5.90;;;26.30;59.40;;;;;;10477047;28;20226;-70
2022/08/25 19:26:42;;;;;;;6.57;5.83;;;26.20;59.80;;;;;;10467940;28;20242;-70
2022/08/25 19:31:45;;;;;;;5.33;4.83;;;26.10;59.80;;;;;;10462978;28;20204;-70
2022/08/25 19:36:47;;;;;;;7.00;4.77;;;26.10;60.00;;;;;;10474983;28;20242;-71
2022/08/25 19:41:47;;;;;;;5.63;4.70;;;26.10;60.00;;;;;;10476102;28;20701;-70
2022/08/25 19:46:50;;;;;;;9.40;5.10;;;26.10;60.10;;;;;;10476663;28;20219;-71
2022/08/25 19:51:58;;;;;;;7.60;5.23;;;26.10;60.10;;;;;;10466112;28;20250;-70
2022/08/25 19:57:00;;;;;;;5.67;4.27;;;26.10;60.50;;;;;;10483155;28;20215;-70
2022/08/25 20:02:01;;;;;;;6.83;4.53;;;26.20;59.80;;;;;;10465756;28;20225;-71
2022/08/25 20:07:02;;;;;;;7.53;4.27;;;26.20;60.00;;;;;;10478196;28;20298;-70
2022/08/25 20:12:04;;;;;;;7.47;4.60;;;26.10;60.10;;;;;;10470327;28;20606;-70
2022/08/25 20:17:05;;;;;;;5.73;4.40;;;26.10;60.70;;;;;;10470612;28;20304;-71
2022/08/25 20:22:06;;;;;;;7.17;4.60;;;26.00;60.80;;;;;;10469291;28;20212;-70
2022/08/25 20:27:06;;;;;;;6.20;4.47;;;26.00;61.30;;;;;;10473482;28;20219;-71
2022/08/25 20:32:07;;;;;;;7.40;4.43;;;25.90;61.40;;;;;;10466722;28;20223;-70
2022/08/25 20:37:08;;;;;;;5.90;5.30;;;25.90;61.50;;;;;;10477246;28;20212;-70
2022/08/25 20:42:10;;;;;;;6.73;5.57;;;25.90;61.80;;;;;;10474242;28;20219;-71
2022/08/25 20:47:10;;;;;;;6.90;5.87;;;25.90;61.80;;;;;;10464420;28;20243;-70
2022/08/25 20:52:11;;;;;;;5.73;5.13;;;25.90;62.10;;;;;;10480351;28;20665;-69
2022/08/25 20:57:12;;;;;;;8.30;4.93;;;25.80;62.50;;;;;;10471023;28;20207;-66
2022/08/25 21:02:13;;;;;;;7.63;5.30;;;25.70;63.10;;;;;;10468954;28;20302;-67
2022/08/25 21:07:13;;;;;;;7.63;6.93;;;25.60;64.20;;;;;;10475301;28;20234;-69
2022/08/25 21:12:15;;;;;;;8.37;6.43;;;25.50;64.70;;;;;;10464645;28;20365;-69
2022/08/25 21:17:16;;;;;;;9.43;5.73;;;25.40;65.20;;;;;;10471680;28;20560;-69
2022/08/25 21:22:17;;;;;;;6.07;5.43;;;25.30;65.70;;;;;;10472281;28;20215;-68
2022/08/25 21:27:17;;;;;;;6.30;5.70;;;25.10;66.40;;;;;;10484938;28;20223;-68
2022/08/25 21:32:18;;;;;;;7.43;5.97;;;25.10;67.00;;;;;;10467872;28;20755;-70
2022/08/25 21:37:18;;;;;;;8.80;5.80;;;25.00;67.00;;;;;;10462207;28;20227;-67
2022/08/25 21:42:21;;;;;;;6.63;5.33;;;25.00;67.10;;;;;;10456175;28;20320;-67
2022/08/25 21:47:21;;;;;;;7.13;5.37;;;25.00;67.20;;;;;;10468913;28;20223;-65
2022/08/25 21:52:22;;;;;;;5.40;4.57;;;25.00;67.20;;;;;;10471352;28;20214;-67
2022/08/25 21:57:22;;;;;;;5.17;4.63;;;25.00;67.40;;;;;;10466018;28;20208;-67
2022/08/25 22:02:24;;;;;;;5.03;4.60;;;25.00;67.60;;;;;;10456534;28;20592;-66
2022/08/25 22:07:24;;;;;;;7.60;5.00;;;25.00;67.80;;;;;;10470537;28;20726;-66
2022/08/25 22:12:25;;;;;;;5.63;4.90;;;24.90;68.10;;;;;;10474512;28;20219;-73
2022/08/25 22:17:26;;;;;;;6.33;5.17;;;24.80;68.30;;;;;;10466341;28;20218;-74
2022/08/25 22:22:26;;;;;;;5.93;5.03;;;24.80;68.80;;;;;;10463026;28;20227;-74
2022/08/25 22:27:27;;;;;;;8.97;5.90;;;24.70;69.10;;;;;;10473902;28;20242;-74
2022/08/25 22:32:28;;;;;;;6.47;5.67;;;24.80;69.20;;;;;;10480040;28;20215;-74
2022/08/25 22:37:29;;;;;;;7.73;5.53;;;24.80;69.30;;;;;;10484257;28;20287;-74
2022/08/25 22:42:32;;;;;;;9.57;5.50;;;24.80;69.20;;;;;;10484627;28;20256;-75
2022/08/25 22:47:33;;;;;;;8.40;5.70;;;24.80;69.10;;;;;;10476988;28;20582;-75
2022/08/25 22:52:34;;;;;;;7.93;5.60;;;24.80;69.10;;;;;;10477943;28;20576;-74
2022/08/25 22:57:35;;;;;;;8.70;5.60;;;24.80;69.40;;;;;;10477126;28;20223;-74
2022/08/25 23:02:36;;;;;;;7.50;4.97;;;24.70;69.70;;;;;;10484501;28;20307;-74
2022/08/25 23:07:38;;;;;;;5.90;5.20;;;24.70;70.00;;;;;;10482522;28;20231;-70
2022/08/25 23:12:39;;;;;;;6.30;5.70;;;24.60;70.40;;;;;;10474645;28;20327;-72
2022/08/25 23:17:40;;;;;;;8.70;5.43;;;24.60;70.70;;;;;;10472850;28;20277;-72
2022/08/25 23:22:41;;;;;;;6.43;5.40;;;24.50;71.30;;;;;;10480487;28;20628;-72
2022/08/25 23:27:45;;;;;;;7.50;5.40;;;24.50;72.10;;;;;;10474835;28;20227;-72
2022/08/25 23:32:45;;;;;;;7.57;5.73;;;24.30;72.40;;;;;;10481450;28;20301;-73
2022/08/25 23:37:46;;;;;;;7.57;5.77;;;24.30;72.90;;;;;;10476452;28;20270;-71
2022/08/25 23:42:46;;;;;;;8.43;5.87;;;24.20;73.50;;;;;;10471807;28;20231;-71
2022/08/25 23:47:47;;;;;;;6.30;5.70;;;24.10;73.90;;;;;;10477969;28;20234;-71
2022/08/25 23:52:50;;;;;;;6.43;5.83;;;24.00;74.30;;;;;;10476523;28;20242;-74
2022/08/25 23:57:53;;;;;;;10.03;6.00;;;23.90;75.20;;;;;;10475366;28;20227;-75
